sensor_id;sensor_type;location;lat;lon;timestamp;pressure;altitude;pressure_sealevel;temperature;humidity
70011;BME280;59543;37.950;-122.338;2023-05-10T00:01:35;101310.38;;;20.71;43.05
70011;BME280;59543;37.950;-122.338;2023-05-10T00:04:01;101308.59;;;20.57;43.06
70011;BME280;59543;37.950;-122.338;2023-05-10T00:06:28;101313.13;;;20.43;43.09
70011;BME280;59543;37.950;-122.338;2023-05-10T00:08:54;101315.69;;;20.51;41.83
70011;BME280;59543;37.950;-122.338;2023-05-10T00:11:20;101310.13;;;20.66;42.74
70011;BME280;59543;37.950;-122.338;2023-05-10T00:13:46;101316.81;;;20.98;41.72
70011;BME280;59543;37.950;-122.338;2023-05-10T00:16:13;101313.41;;;20.89;41.43
70011;BME280;59543;37.950;-122.338;2023-05-10T00:18:39;101315.00;;;20.70;42.34
70011;BME280;59543;37.950;-122.338;2023-05-10T00:21:06;101315.16;;;20.62;42.39
70011;BME280;59543;37.950;-122.338;2023-05-10T00:23:32;101309.59;;;20.84;41.78
70011;BME280;59543;37.950;-122.338;2023-05-10T00:25:58;101315.44;;;20.74;43.38
70011;BME280;59543;37.950;-122.338;2023-05-10T00:28:24;101308.00;;;20.61;43.44
70011;BME280;59543;37.950;-122.338;2023-05-10T00:30:51;101314.69;;;20.52;44.65
70011;BME280;59543;37.950;-122.338;2023-05-10T00:33:17;101307.28;;;19.96;45.38
70011;BME280;59543;37.950;-122.338;2023-05-10T00:35:43;101302.44;;;19.92;45.72
70011;BME280;59543;37.950;-122.338;2023-05-10T00:38:10;101311.47;;;19.92;45.06
70011;BME280;59543;37.950;-122.338;2023-05-10T00:40:36;101316.91;;;20.14;45.10
70011;BME280;59543;37.950;-122.338;2023-05-10T00:43:03;101309.97;;;19.90;46.14
70011;BME280;59543;37.950;-122.338;2023-05-10T00:45:33;101320.78;;;19.61;46.30
70011;BME280;59543;37.950;-122.338;2023-05-10T00:48:02;101309.94;;;19.47;46.97
70011;BME280;59543;37.950;-122.338;2023-05-10T00:50:30;101319.44;;;19.14;46.46
70011;BME280;59543;37.950;-122.338;2023-05-10T00:53:01;101324.75;;;19.37;47.04
70011;BME280;59543;37.950;-122.338;2023-05-10T00:55:28;101317.75;;;19.50;46.37
70011;BME280;59543;37.950;-122.338;2023-05-10T00:57:55;101316.59;;;19.59;45.67
70011;BME280;59543;37.950;-122.338;2023-05-10T01:00:22;101317.75;;;19.50;45.36
70011;BME280;59543;37.950;-122.338;2023-05-10T01:02:48;101326.56;;;19.52;46.79
70011;BME280;59543;37.950;-122.338;2023-05-10T01:05:15;101331.69;;;19.40;46.28
70011;BME280;59543;37.950;-122.338;2023-05-10T01:07:41;101325.06;;;19.13;46.50
70011;BME280;59543;37.950;-122.338;2023-05-10T01:10:08;101334.31;;;19.12;46.45
70011;BME280;59543;37.950;-122.338;2023-05-10T01:12:38;101330.03;;;19.24;45.25
70011;BME280;59543;37.950;-122.338;2023-05-10T01:15:09;101330.28;;;18.63;46.18
70011;BME280;59543;37.950;-122.338;2023-05-10T01:17:38;101326.25;;;18.59;46.14
70011;BME280;59543;37.950;-122.338;2023-05-10T01:20:06;101326.88;;;18.46;47.66
70011;BME280;59543;37.950;-122.338;2023-05-10T01:25:22;101321.50;;;18.23;47.49
70011;BME280;59543;37.950;-122.338;2023-05-10T01:33:47;101329.75;;;18.15;48.92
70011;BME280;59543;37.950;-122.338;2023-05-10T01:36:23;101331.78;;;18.13;48.24
70011;BME280;59543;37.950;-122.338;2023-05-10T01:39:25;101324.63;;;18.35;48.51
70011;BME280;59543;37.950;-122.338;2023-05-10T01:42:06;101335.50;;;18.35;49.33
70011;BME280;59543;37.950;-122.338;2023-05-10T01:44:49;101326.25;;;18.59;48.23
70011;BME280;59543;37.950;-122.338;2023-05-10T01:47:38;101328.84;;;18.67;47.49
70011;BME280;59543;37.950;-122.338;2023-05-10T01:50:10;101323.66;;;18.28;48.20
70011;BME280;59543;37.950;-122.338;2023-05-10T01:52:49;101328.00;;;18.52;48.17
70011;BME280;59543;37.950;-122.338;2023-05-10T01:55:20;101332.31;;;18.46;48.07
70011;BME280;59543;37.950;-122.338;2023-05-10T01:57:52;101322.00;;;18.57;48.78
70011;BME280;59543;37.950;-122.338;2023-05-10T02:00:22;101325.56;;;18.57;49.22
70011;BME280;59543;37.950;-122.338;2023-05-10T02:02:50;101325.44;;;18.21;49.19
70011;BME280;59543;37.950;-122.338;2023-05-10T02:05:19;101334.00;;;18.33;48.80
70011;BME280;59543;37.950;-122.338;2023-05-10T02:07:46;101341.00;;;18.12;48.49
70011;BME280;59543;37.950;-122.338;2023-05-10T02:10:14;101341.41;;;18.24;48.29
70011;BME280;59543;37.950;-122.338;2023-05-10T02:12:43;101349.78;;;18.37;47.58
70011;BME280;59543;37.950;-122.338;2023-05-10T02:15:11;101347.13;;;18.14;48.20
70011;BME280;59543;37.950;-122.338;2023-05-10T02:17:39;101343.56;;;18.28;48.50
70011;BME280;59543;37.950;-122.338;2023-05-10T02:20:08;101343.25;;;18.09;48.47
70011;BME280;59543;37.950;-122.338;2023-05-10T02:22:36;101351.41;;;18.09;48.40
70011;BME280;59543;37.950;-122.338;2023-05-10T02:25:05;101350.38;;;18.47;47.89
70011;BME280;59543;37.950;-122.338;2023-05-10T02:27:34;101352.00;;;18.19;47.87
70011;BME280;59543;37.950;-122.338;2023-05-10T02:30:01;101348.50;;;18.10;48.27
70011;BME280;59543;37.950;-122.338;2023-05-10T02:32:29;101350.94;;;18.20;48.38
70011;BME280;59543;37.950;-122.338;2023-05-10T02:34:56;101362.00;;;17.80;49.04
70011;BME280;59543;37.950;-122.338;2023-05-10T02:37:24;101360.78;;;17.60;50.44
70011;BME280;59543;37.950;-122.338;2023-05-10T02:39:52;101366.28;;;17.12;51.37
70011;BME280;59543;37.950;-122.338;2023-05-10T02:42:26;101361.25;;;16.93;51.91
70011;BME280;59543;37.950;-122.338;2023-05-10T02:44:56;101369.81;;;16.74;52.92
70011;BME280;59543;37.950;-122.338;2023-05-10T02:47:25;101372.94;;;16.30;53.96
70011;BME280;59543;37.950;-122.338;2023-05-10T02:49:52;101372.59;;;16.25;53.89
70011;BME280;59543;37.950;-122.338;2023-05-10T02:52:24;101378.50;;;16.53;53.14
70011;BME280;59543;37.950;-122.338;2023-05-10T02:54:55;101379.03;;;16.23;53.70
70011;BME280;59543;37.950;-122.338;2023-05-10T02:57:34;101372.78;;;16.31;53.65
70011;BME280;59543;37.950;-122.338;2023-05-10T03:00:03;101381.91;;;15.81;54.99
70011;BME280;59543;37.950;-122.338;2023-05-10T03:02:30;101391.59;;;15.84;54.77
70011;BME280;59543;37.950;-122.338;2023-05-10T03:04:56;101388.94;;;15.58;55.36
70011;BME280;59543;37.950;-122.338;2023-05-10T03:07:23;101394.84;;;15.45;56.23
70011;BME280;59543;37.950;-122.338;2023-05-10T03:09:49;101393.09;;;15.27;56.92
70011;BME280;59543;37.950;-122.338;2023-05-10T03:15:25;101399.91;;;14.97;58.19
70011;BME280;59543;37.950;-122.338;2023-05-10T03:18:05;101404.16;;;15.00;58.43
70011;BME280;59543;37.950;-122.338;2023-05-10T03:20:41;101413.41;;;14.89;58.39
70011;BME280;59543;37.950;-122.338;2023-05-10T03:23:13;101414.59;;;14.86;58.56
70011;BME280;59543;37.950;-122.338;2023-05-10T03:25:48;101414.91;;;14.57;59.01
70011;BME280;59543;37.950;-122.338;2023-05-10T03:28:16;101412.81;;;14.69;59.23
70011;BME280;59543;37.950;-122.338;2023-05-10T03:30:44;101415.91;;;14.82;58.72
70011;BME280;59543;37.950;-122.338;2023-05-10T03:33:11;101421.81;;;14.52;60.11
70011;BME280;59543;37.950;-122.338;2023-05-10T03:35:38;101428.34;;;14.49;59.72
70011;BME280;59543;37.950;-122.338;2023-05-10T03:38:05;101427.28;;;14.42;59.50
70011;BME280;59543;37.950;-122.338;2023-05-10T03:40:31;101427.44;;;14.40;60.07
70011;BME280;59543;37.950;-122.338;2023-05-10T03:42:58;101433.63;;;14.51;59.33
70011;BME280;59543;37.950;-122.338;2023-05-10T03:45:25;101443.75;;;14.49;59.38
70011;BME280;59543;37.950;-122.338;2023-05-10T03:47:51;101437.94;;;14.44;59.67
70011;BME280;59543;37.950;-122.338;2023-05-10T03:50:17;101439.91;;;14.33;60.04
70011;BME280;59543;37.950;-122.338;2023-05-10T03:52:44;101438.38;;;14.13;61.01
70011;BME280;59543;37.950;-122.338;2023-05-10T03:55:10;101440.16;;;14.04;60.92
70011;BME280;59543;37.950;-122.338;2023-05-10T03:57:37;101441.69;;;14.07;61.11
70011;BME280;59543;37.950;-122.338;2023-05-10T04:00:03;101438.84;;;13.90;61.58
70011;BME280;59543;37.950;-122.338;2023-05-10T04:04:57;101441.06;;;13.95;61.98
70011;BME280;59543;37.950;-122.338;2023-05-10T04:07:23;101441.25;;;14.11;61.26
70011;BME280;59543;37.950;-122.338;2023-05-10T04:09:50;101444.41;;;13.89;61.43
70011;BME280;59543;37.950;-122.338;2023-05-10T04:12:16;101440.53;;;13.91;61.82
70011;BME280;59543;37.950;-122.338;2023-05-10T04:14:42;101446.81;;;14.10;61.55
70011;BME280;59543;37.950;-122.338;2023-05-10T04:17:09;101448.34;;;14.12;61.52
70011;BME280;59543;37.950;-122.338;2023-05-10T04:19:36;101443.03;;;14.03;61.65
70011;BME280;59543;37.950;-122.338;2023-05-10T04:22:02;101448.97;;;14.06;61.93
70011;BME280;59543;37.950;-122.338;2023-05-10T04:24:29;101459.06;;;13.86;62.71
70011;BME280;59543;37.950;-122.338;2023-05-10T04:26:55;101458.84;;;13.98;61.91
70011;BME280;59543;37.950;-122.338;2023-05-10T04:29:21;101458.84;;;13.98;61.85
70011;BME280;59543;37.950;-122.338;2023-05-10T04:31:48;101453.84;;;14.03;61.55
70011;BME280;59543;37.950;-122.338;2023-05-10T04:34:14;101468.50;;;13.82;62.51
70011;BME280;59543;37.950;-122.338;2023-05-10T04:36:40;101457.91;;;13.71;62.97
70011;BME280;59543;37.950;-122.338;2023-05-10T04:39:06;101464.41;;;13.50;63.26
70011;BME280;59543;37.950;-122.338;2023-05-10T04:41:33;101464.16;;;13.44;63.28
70011;BME280;59543;37.950;-122.338;2023-05-10T04:43:59;101469.09;;;13.58;62.31
70011;BME280;59543;37.950;-122.338;2023-05-10T04:46:25;101461.50;;;13.62;61.90
70011;BME280;59543;37.950;-122.338;2023-05-10T04:48:51;101458.50;;;13.65;61.31
70011;BME280;59543;37.950;-122.338;2023-05-10T04:51:18;101467.28;;;13.49;61.44
70011;BME280;59543;37.950;-122.338;2023-05-10T04:53:44;101470.63;;;13.61;61.01
70011;BME280;59543;37.950;-122.338;2023-05-10T04:56:11;101474.97;;;13.44;61.18
70011;BME280;59543;37.950;-122.338;2023-05-10T04:58:37;101475.34;;;13.31;61.92
70011;BME280;59543;37.950;-122.338;2023-05-10T05:01:07;101478.50;;;13.54;60.96
70011;BME280;59543;37.950;-122.338;2023-05-10T05:03:35;101483.03;;;13.54;61.28
70011;BME280;59543;37.950;-122.338;2023-05-10T05:06:02;101486.03;;;13.50;61.32
70011;BME280;59543;37.950;-122.338;2023-05-10T05:08:28;101485.31;;;13.58;60.62
70011;BME280;59543;37.950;-122.338;2023-05-10T05:10:54;101483.63;;;13.47;61.73
70011;BME280;59543;37.950;-122.338;2023-05-10T05:13:21;101479.78;;;13.50;62.01
70011;BME280;59543;37.950;-122.338;2023-05-10T05:15:47;101486.50;;;13.46;62.84
70011;BME280;59543;37.950;-122.338;2023-05-10T05:18:13;101487.81;;;13.42;62.57
70011;BME280;59543;37.950;-122.338;2023-05-10T05:20:40;101485.25;;;13.40;62.28
70011;BME280;59543;37.950;-122.338;2023-05-10T05:23:06;101476.91;;;13.24;62.35
70011;BME280;59543;37.950;-122.338;2023-05-10T05:25:32;101479.59;;;13.24;62.12
70011;BME280;59543;37.950;-122.338;2023-05-10T05:27:58;101486.97;;;13.32;62.03
70011;BME280;59543;37.950;-122.338;2023-05-10T05:30:25;101474.94;;;13.16;62.50
70011;BME280;59543;37.950;-122.338;2023-05-10T05:32:51;101476.63;;;13.17;62.57
70011;BME280;59543;37.950;-122.338;2023-05-10T05:35:18;101471.38;;;13.25;62.02
70011;BME280;59543;37.950;-122.338;2023-05-10T05:37:44;101481.91;;;13.19;61.51
70011;BME280;59543;37.950;-122.338;2023-05-10T05:40:13;101472.22;;;13.26;60.75
70011;BME280;59543;37.950;-122.338;2023-05-10T05:42:39;101473.06;;;13.26;60.92
70011;BME280;59543;37.950;-122.338;2023-05-10T05:45:06;101472.03;;;13.37;60.01
70011;BME280;59543;37.950;-122.338;2023-05-10T05:47:34;101469.63;;;13.34;60.32
70011;BME280;59543;37.950;-122.338;2023-05-10T05:50:00;101471.69;;;13.13;60.72
70011;BME280;59543;37.950;-122.338;2023-05-10T05:52:27;101470.06;;;13.20;60.66
70011;BME280;59543;37.950;-122.338;2023-05-10T05:54:53;101471.63;;;13.32;59.91
70011;BME280;59543;37.950;-122.338;2023-05-10T05:57:19;101466.94;;;13.34;59.72
70011;BME280;59543;37.950;-122.338;2023-05-10T05:59:45;101463.38;;;13.34;60.20
70011;BME280;59543;37.950;-122.338;2023-05-10T06:02:11;101473.50;;;13.22;60.43
70011;BME280;59543;37.950;-122.338;2023-05-10T06:04:38;101466.16;;;13.04;60.81
70011;BME280;59543;37.950;-122.338;2023-05-10T06:07:04;101463.47;;;13.04;60.45
70011;BME280;59543;37.950;-122.338;2023-05-10T06:09:30;101472.09;;;13.18;59.73
70011;BME280;59543;37.950;-122.338;2023-05-10T06:11:57;101464.84;;;13.18;60.36
70011;BME280;59543;37.950;-122.338;2023-05-10T06:14:23;101451.16;;;13.20;60.24
70011;BME280;59543;37.950;-122.338;2023-05-10T06:16:49;101453.88;;;13.20;59.88
70011;BME280;59543;37.950;-122.338;2023-05-10T06:19:15;101457.28;;;13.22;59.67
70011;BME280;59543;37.950;-122.338;2023-05-10T06:21:41;101451.75;;;13.14;59.99
70011;BME280;59543;37.950;-122.338;2023-05-10T06:24:08;101455.78;;;13.10;60.17
70011;BME280;59543;37.950;-122.338;2023-05-10T06:26:34;101449.81;;;12.96;61.06
70011;BME280;59543;37.950;-122.338;2023-05-10T06:29:00;101450.13;;;12.93;61.12
70011;BME280;59543;37.950;-122.338;2023-05-10T06:31:27;101449.16;;;12.94;61.54
70011;BME280;59543;37.950;-122.338;2023-05-10T06:33:53;101442.50;;;12.69;64.87
70011;BME280;59543;37.950;-122.338;2023-05-10T06:36:19;101445.13;;;12.61;67.89
70011;BME280;59543;37.950;-122.338;2023-05-10T06:38:45;101450.78;;;12.48;69.97
70011;BME280;59543;37.950;-122.338;2023-05-10T06:41:11;101456.78;;;12.32;71.94
70011;BME280;59543;37.950;-122.338;2023-05-10T06:43:38;101449.38;;;12.44;71.91
70011;BME280;59543;37.950;-122.338;2023-05-10T06:46:07;101436.03;;;12.33;72.71
70011;BME280;59543;37.950;-122.338;2023-05-10T06:48:33;101444.13;;;12.33;72.64
70011;BME280;59543;37.950;-122.338;2023-05-10T06:50:59;101432.94;;;12.38;72.94
70011;BME280;59543;37.950;-122.338;2023-05-10T06:53:26;101437.91;;;12.23;74.00
70011;BME280;59543;37.950;-122.338;2023-05-10T06:55:52;101450.28;;;12.16;74.49
70011;BME280;59543;37.950;-122.338;2023-05-10T06:58:18;101450.84;;;12.19;74.63
70011;BME280;59543;37.950;-122.338;2023-05-10T07:00:44;101443.16;;;12.05;74.88
70011;BME280;59543;37.950;-122.338;2023-05-10T07:03:12;101439.91;;;11.92;76.03
70011;BME280;59543;37.950;-122.338;2023-05-10T07:05:38;101437.50;;;11.98;75.15
70011;BME280;59543;37.950;-122.338;2023-05-10T07:08:04;101443.72;;;11.89;76.68
70011;BME280;59543;37.950;-122.338;2023-05-10T07:10:31;101435.84;;;11.76;76.96
70011;BME280;59543;37.950;-122.338;2023-05-10T07:12:57;101433.91;;;11.88;76.58
70011;BME280;59543;37.950;-122.338;2023-05-10T07:15:23;101428.69;;;11.96;75.59
70011;BME280;59543;37.950;-122.338;2023-05-10T07:17:49;101431.22;;;11.88;76.33
70011;BME280;59543;37.950;-122.338;2023-05-10T07:20:17;101440.41;;;11.76;76.96
70011;BME280;59543;37.950;-122.338;2023-05-10T07:22:43;101431.34;;;11.77;76.49
70011;BME280;59543;37.950;-122.338;2023-05-10T07:25:10;101436.91;;;11.85;75.80
70011;BME280;59543;37.950;-122.338;2023-05-10T07:27:36;101434.31;;;11.74;76.55
70011;BME280;59543;37.950;-122.338;2023-05-10T07:30:02;101438.03;;;11.82;76.42
70011;BME280;59543;37.950;-122.338;2023-05-10T07:32:29;101431.03;;;11.70;76.87
70011;BME280;59543;37.950;-122.338;2023-05-10T07:34:55;101430.06;;;11.81;75.91
70011;BME280;59543;37.950;-122.338;2023-05-10T07:37:21;101436.84;;;11.75;76.28
70011;BME280;59543;37.950;-122.338;2023-05-10T07:39:47;101430.19;;;11.70;76.51
70011;BME280;59543;37.950;-122.338;2023-05-10T07:42:13;101431.19;;;11.68;76.66
70011;BME280;59543;37.950;-122.338;2023-05-10T07:44:40;101433.88;;;11.78;76.83
70011;BME280;59543;37.950;-122.338;2023-05-10T07:47:06;101426.75;;;11.58;78.24
70011;BME280;59543;37.950;-122.338;2023-05-10T07:49:32;101436.00;;;11.65;78.25
70011;BME280;59543;37.950;-122.338;2023-05-10T07:51:58;101432.19;;;11.67;77.50
70011;BME280;59543;37.950;-122.338;2023-05-10T07:54:25;101433.28;;;11.55;78.28
70011;BME280;59543;37.950;-122.338;2023-05-10T07:56:51;101433.97;;;11.48;78.22
70011;BME280;59543;37.950;-122.338;2023-05-10T07:59:18;101430.25;;;11.39;78.85
70011;BME280;59543;37.950;-122.338;2023-05-10T08:01:44;101429.97;;;11.32;79.71
70011;BME280;59543;37.950;-122.338;2023-05-10T08:04:10;101433.38;;;11.34;78.90
70011;BME280;59543;37.950;-122.338;2023-05-10T08:06:37;101440.44;;;11.26;80.24
70011;BME280;59543;37.950;-122.338;2023-05-10T08:09:03;101436.75;;;11.27;80.05
70011;BME280;59543;37.950;-122.338;2023-05-10T08:11:29;101439.88;;;11.32;79.10
70011;BME280;59543;37.950;-122.338;2023-05-10T08:13:56;101440.75;;;11.02;80.77
70011;BME280;59543;37.950;-122.338;2023-05-10T08:16:22;101437.84;;;11.14;81.06
70011;BME280;59543;37.950;-122.338;2023-05-10T08:18:48;101437.25;;;11.11;80.58
70011;BME280;59543;37.950;-122.338;2023-05-10T08:21:16;101425.38;;;11.13;80.97
70011;BME280;59543;37.950;-122.338;2023-05-10T08:23:43;101432.47;;;11.24;80.36
70011;BME280;59543;37.950;-122.338;2023-05-10T08:26:11;101438.56;;;11.16;80.56
70011;BME280;59543;37.950;-122.338;2023-05-10T08:28:38;101438.44;;;11.28;79.63
70011;BME280;59543;37.950;-122.338;2023-05-10T08:31:04;101431.75;;;11.22;79.84
70011;BME280;59543;37.950;-122.338;2023-05-10T08:33:31;101430.47;;;11.16;80.48
70011;BME280;59543;37.950;-122.338;2023-05-10T08:35:57;101423.91;;;11.09;80.92
70011;BME280;59543;37.950;-122.338;2023-05-10T08:38:23;101422.56;;;11.25;80.36
70011;BME280;59543;37.950;-122.338;2023-05-10T08:40:54;101415.16;;;11.07;80.83
70011;BME280;59543;37.950;-122.338;2023-05-10T08:43:27;101418.81;;;11.06;80.56
70011;BME280;59543;37.950;-122.338;2023-05-10T08:45:55;101419.50;;;10.98;80.79
70011;BME280;59543;37.950;-122.338;2023-05-10T08:48:24;101417.22;;;11.04;80.58
70011;BME280;59543;37.950;-122.338;2023-05-10T08:50:53;101414.69;;;11.02;79.66
70011;BME280;59543;37.950;-122.338;2023-05-10T08:53:24;101417.97;;;11.06;79.92
70011;BME280;59543;37.950;-122.338;2023-05-10T08:55:54;101415.69;;;11.01;79.34
70011;BME280;59543;37.950;-122.338;2023-05-10T08:58:21;101419.03;;;10.93;79.58
70011;BME280;59543;37.950;-122.338;2023-05-10T09:00:49;101420.78;;;10.73;81.14
70011;BME280;59543;37.950;-122.338;2023-05-10T09:03:16;101415.47;;;10.83;79.95
70011;BME280;59543;37.950;-122.338;2023-05-10T09:05:43;101409.47;;;10.80;79.51
70011;BME280;59543;37.950;-122.338;2023-05-10T09:08:11;101412.16;;;10.80;79.68
70011;BME280;59543;37.950;-122.338;2023-05-10T09:10:39;101407.47;;;10.72;79.71
70011;BME280;59543;37.950;-122.338;2023-05-10T09:13:06;101401.56;;;10.78;79.22
70011;BME280;59543;37.950;-122.338;2023-05-10T09:15:33;101408.69;;;10.68;79.26
70011;BME280;59543;37.950;-122.338;2023-05-10T09:17:59;101398.34;;;10.63;79.45
70011;BME280;59543;37.950;-122.338;2023-05-10T09:20:28;101396.03;;;10.59;79.97
70011;BME280;59543;37.950;-122.338;2023-05-10T09:22:54;101397.88;;;10.58;79.40
70011;BME280;59543;37.950;-122.338;2023-05-10T09:25:20;101391.34;;;10.51;79.09
70011;BME280;59543;37.950;-122.338;2023-05-10T09:27:48;101388.50;;;10.52;79.34
70011;BME280;59543;37.950;-122.338;2023-05-10T09:30:17;101391.47;;;10.49;79.38
70011;BME280;59543;37.950;-122.338;2023-05-10T09:32:45;101395.47;;;10.55;78.67
70011;BME280;59543;37.950;-122.338;2023-05-10T09:35:17;101396.19;;;10.57;78.57
70011;BME280;59543;37.950;-122.338;2023-05-10T09:37:49;101388.78;;;10.49;78.18
70011;BME280;59543;37.950;-122.338;2023-05-10T09:40:18;101392.47;;;10.48;78.02
70011;BME280;59543;37.950;-122.338;2023-05-10T09:43:02;101391.63;;;10.48;78.43
70011;BME280;59543;37.950;-122.338;2023-05-10T09:45:30;101396.25;;;10.46;78.06
70011;BME280;59543;37.950;-122.338;2023-05-10T09:47:58;101400.69;;;10.47;78.20
70011;BME280;59543;37.950;-122.338;2023-05-10T09:50:25;101401.56;;;10.57;77.51
70011;BME280;59543;37.950;-122.338;2023-05-10T09:52:53;101398.16;;;10.55;77.59
70011;BME280;59543;37.950;-122.338;2023-05-10T09:55:24;101389.81;;;10.58;77.71
70011;BME280;59543;37.950;-122.338;2023-05-10T09:57:59;101395.63;;;10.53;78.22
70011;BME280;59543;37.950;-122.338;2023-05-10T10:00:27;101397.72;;;10.50;77.83
70011;BME280;59543;37.950;-122.338;2023-05-10T10:02:58;101402.44;;;10.37;79.71
70011;BME280;59543;37.950;-122.338;2023-05-10T10:05:32;101402.63;;;10.45;78.95
70011;BME280;59543;37.950;-122.338;2023-05-10T10:08:00;101396.22;;;10.36;79.28
70011;BME280;59543;37.950;-122.338;2023-05-10T10:10:27;101402.13;;;10.30;79.62
70011;BME280;59543;37.950;-122.338;2023-05-10T10:12:54;101398.22;;;10.23;79.62
70011;BME280;59543;37.950;-122.338;2023-05-10T10:15:22;101406.19;;;10.13;80.46
70011;BME280;59543;37.950;-122.338;2023-05-10T10:17:49;101408.44;;;10.08;80.67
70011;BME280;59543;37.950;-122.338;2023-05-10T10:20:17;101413.09;;;10.06;80.32
70011;BME280;59543;37.950;-122.338;2023-05-10T10:22:43;101410.66;;;10.03;81.14
70011;BME280;59543;37.950;-122.338;2023-05-10T10:25:16;101411.53;;;9.92;81.37
70011;BME280;59543;37.950;-122.338;2023-05-10T10:35:39;101395.13;;;9.74;81.54
70011;BME280;59543;37.950;-122.338;2023-05-10T10:38:08;101398.47;;;9.67;82.25
70011;BME280;59543;37.950;-122.338;2023-05-10T10:40:35;101394.56;;;9.59;82.88
70011;BME280;59543;37.950;-122.338;2023-05-10T10:46:14;101395.44;;;9.60;82.89
70011;BME280;59543;37.950;-122.338;2023-05-10T10:48:46;101402.16;;;9.54;84.20
70011;BME280;59543;37.950;-122.338;2023-05-10T10:51:13;101394.56;;;9.59;84.57
70011;BME280;59543;37.950;-122.338;2023-05-10T10:53:40;101403.50;;;9.60;85.23
70011;BME280;59543;37.950;-122.338;2023-05-10T10:56:09;101400.06;;;9.58;84.82
70011;BME280;59543;37.950;-122.338;2023-05-10T10:58:39;101408.47;;;9.65;85.01
70011;BME280;59543;37.950;-122.338;2023-05-10T11:01:16;101408.72;;;9.61;86.01
70011;BME280;59543;37.950;-122.338;2023-05-10T11:04:18;101407.38;;;9.56;86.04
70011;BME280;59543;37.950;-122.338;2023-05-10T11:06:45;101406.44;;;9.57;86.19
70011;BME280;59543;37.950;-122.338;2023-05-10T11:09:12;101406.56;;;9.44;86.80
70011;BME280;59543;37.950;-122.338;2023-05-10T11:11:52;101413.75;;;9.55;85.81
70011;BME280;59543;37.950;-122.338;2023-05-10T11:14:23;101407.66;;;9.53;86.66
70011;BME280;59543;37.950;-122.338;2023-05-10T11:16:50;101416.81;;;9.50;85.23
70011;BME280;59543;37.950;-122.338;2023-05-10T11:19:17;101414.03;;;9.41;86.18
70011;BME280;59543;37.950;-122.338;2023-05-10T11:21:49;101418.91;;;9.35;86.45
70011;BME280;59543;37.950;-122.338;2023-05-10T11:24:23;101422.56;;;9.34;87.67
70011;BME280;59543;37.950;-122.338;2023-05-10T11:26:53;101414.28;;;9.37;88.16
70011;BME280;59543;37.950;-122.338;2023-05-10T11:29:20;101414.84;;;9.52;87.38
70011;BME280;59543;37.950;-122.338;2023-05-10T11:31:47;101423.56;;;9.45;87.89
70011;BME280;59543;37.950;-122.338;2023-05-10T11:34:28;101415.72;;;9.42;87.96
70011;BME280;59543;37.950;-122.338;2023-05-10T11:36:56;101421.72;;;9.45;86.12
70011;BME280;59543;37.950;-122.338;2023-05-10T11:39:31;101422.69;;;9.44;86.08
70011;BME280;59543;37.950;-122.338;2023-05-10T11:41:58;101422.81;;;9.31;85.58
70011;BME280;59543;37.950;-122.338;2023-05-10T11:44:32;101426.25;;;9.33;85.39
70011;BME280;59543;37.950;-122.338;2023-05-10T11:47:02;101429.03;;;9.32;85.48
70011;BME280;59543;37.950;-122.338;2023-05-10T11:49:28;101445.88;;;9.23;85.67
70011;BME280;59543;37.950;-122.338;2023-05-10T11:52:13;101442.97;;;9.14;86.70
70011;BME280;59543;37.950;-122.338;2023-05-10T11:55:05;101444.69;;;9.27;85.53
70011;BME280;59543;37.950;-122.338;2023-05-10T11:57:31;101444.06;;;9.23;85.75
70011;BME280;59543;37.950;-122.338;2023-05-10T11:59:58;101452.25;;;9.10;87.46
70011;BME280;59543;37.950;-122.338;2023-05-10T12:02:24;101447.13;;;9.07;87.73
70011;BME280;59543;37.950;-122.338;2023-05-10T12:04:51;101459.81;;;9.28;87.87
70011;BME280;59543;37.950;-122.338;2023-05-10T12:07:17;101459.41;;;9.32;86.48
70011;BME280;59543;37.950;-122.338;2023-05-10T12:09:44;101460.66;;;9.39;86.90
70011;BME280;59543;37.950;-122.338;2023-05-10T12:12:16;101464.31;;;9.38;87.00
70011;BME280;59543;37.950;-122.338;2023-05-10T12:14:42;101467.97;;;9.37;86.14
70011;BME280;59543;37.950;-122.338;2023-05-10T12:17:12;101465.28;;;9.60;85.73
70011;BME280;59543;37.950;-122.338;2023-05-10T12:19:39;101468.06;;;9.58;85.74
70011;BME280;59543;37.950;-122.338;2023-05-10T12:22:06;101471.50;;;9.49;85.81
70011;BME280;59543;37.950;-122.338;2023-05-10T12:24:35;101465.59;;;9.78;84.39
70011;BME280;59543;37.950;-122.338;2023-05-10T12:27:05;101460.81;;;9.81;83.96
70011;BME280;59543;37.950;-122.338;2023-05-10T12:29:33;101464.69;;;9.89;83.55
70011;BME280;59543;37.950;-122.338;2023-05-10T12:32:00;101478.16;;;9.77;84.32
70011;BME280;59543;37.950;-122.338;2023-05-10T12:34:35;101472.31;;;9.72;84.59
70011;BME280;59543;37.950;-122.338;2023-05-10T12:37:03;101467.06;;;9.71;84.27
70011;BME280;59543;37.950;-122.338;2023-05-10T12:39:44;101479.88;;;9.78;83.89
70011;BME280;59543;37.950;-122.338;2023-05-10T12:42:11;101481.59;;;9.68;84.26
70011;BME280;59543;37.950;-122.338;2023-05-10T12:44:38;101481.81;;;9.88;83.15
70011;BME280;59543;37.950;-122.338;2023-05-10T12:47:05;101487.56;;;9.83;83.67
70011;BME280;59543;37.950;-122.338;2023-05-10T12:49:31;101480.34;;;9.83;83.06
70011;BME280;59543;37.950;-122.338;2023-05-10T12:51:58;101482.34;;;9.70;83.69
70011;BME280;59543;37.950;-122.338;2023-05-10T12:54:24;101485.38;;;9.66;84.35